Strona główna
METAR-TAF:

METAR-TAF

Lotnisko :

Port lotniczy Loei

Loei, Tajlandia

Szerokość geograficzna: 17-27N, Długość geograficzna: 101-44E, wysokość: 253 m

Aktualna obserwacja pogody

Raport powstał 1 godzina i 5 minut temu, godzina 04:00 UTC
Wiatr 9 kt od wschodnio-północny wschód, zmienny między północno-północny wschód i wschodnio-południowy wschód
Temperatura 21°C
Wilgotność 25%
Ciśnienie 1023 hPa
Widzialność 10 km lub więcej
Brak chmur poniżej 1500 m i brak chmur cumulonimbus

METAR: VTUL 070400Z 06009KT 030V110 CAVOK 21/M00 Q1023 NOSIG

czas: 12:05 (05:05 UTC)

Prognoza

Raport powstał 6 godziny i 5 minut temu, godzina 23:00 UTC
Prognoza ważna od 07 godzina 00 UTC do 07 godzina 24 UTC
Wiatr 8 kt od wschód
Widzialność: 8000 m

TAF: VTUL 062300Z 0700/0724 08008KT 8000 NSC

Obserwacja i prognoza pogody dla ponad 4000 lotnisk (raport METAR i TAF).

Dostępne stacje oznaczono żółtymi i czerwonymi punktami na mapie.

Najedź kursorem aby zobaczyć nazwę stacji.

Kliknij aby zobaczyć obserwacje i prognozy pogody.

Aby zmienić mapę: kliknij na zielony przycisk z czarnym krzyżykiem, aby powiększyć; na zielony przycisk z myślnikiem, aby pomniejszyć; na zielone strzałki, aby przejść do map sąsiednich.


METAR-TAF: